createdAt,value
2023-01-19T00:01:45.524Z,2.80
2023-01-19T00:04:14.798Z,2.79
2023-01-19T00:06:44.083Z,2.72
2023-01-19T00:09:13.275Z,2.73
2023-01-19T00:11:42.523Z,2.64
2023-01-19T00:14:11.680Z,2.63
2023-01-19T00:16:40.751Z,2.59
2023-01-19T00:19:11.558Z,2.62
2023-01-19T00:21:40.728Z,2.56
2023-01-19T00:24:11.391Z,2.49
2023-01-19T00:26:42.948Z,2.59
2023-01-19T00:29:13.030Z,2.60
2023-01-19T00:31:42.689Z,2.57
2023-01-19T00:34:13.172Z,2.55
2023-01-19T00:36:42.809Z,2.54
2023-01-19T00:39:12.040Z,2.56
2023-01-19T00:41:58.611Z,2.57
2023-01-19T00:44:27.833Z,2.60
2023-01-19T00:46:56.885Z,2.67
2023-01-19T00:49:27.402Z,2.72
2023-01-19T00:51:56.520Z,2.61
2023-01-19T00:54:28.036Z,2.59
2023-01-19T00:56:57.199Z,2.49
2023-01-19T00:59:27.050Z,2.50
2023-01-19T01:01:56.361Z,2.61
2023-01-19T01:04:27.059Z,2.77
2023-01-19T01:06:56.198Z,2.75
2023-01-19T01:09:25.438Z,2.68
2023-01-19T01:11:54.742Z,2.75
2023-01-19T01:14:24.951Z,2.65
2023-01-19T01:16:55.079Z,2.53
2023-01-19T01:19:24.262Z,2.51
2023-01-19T01:21:55.691Z,2.43
2023-01-19T01:24:28.026Z,2.37
2023-01-19T01:26:57.112Z,2.32
2023-01-19T01:29:26.147Z,2.29
2023-01-19T01:31:55.308Z,2.39
2023-01-19T01:34:24.423Z,2.45
2023-01-19T01:36:55.053Z,2.36
2023-01-19T01:39:24.162Z,2.30
2023-01-19T01:41:53.175Z,2.32
2023-01-19T01:44:52.232Z,2.43
2023-01-19T01:47:29.967Z,2.41
2023-01-19T01:50:09.109Z,2.42
2023-01-19T01:53:06.340Z,2.54
2023-01-19T01:55:38.234Z,2.65
2023-01-19T01:58:10.388Z,2.59
2023-01-19T02:00:55.006Z,2.44
2023-01-19T02:03:26.781Z,2.36
2023-01-19T02:05:59.330Z,2.34
2023-01-19T02:08:54.249Z,2.35
2023-01-19T02:11:41.536Z,2.15
2023-01-19T02:14:10.626Z,2.07
2023-01-19T02:16:39.991Z,1.98
2023-01-19T02:19:12.429Z,1.96
2023-01-19T02:21:53.820Z,1.94
2023-01-19T02:24:24.982Z,1.93
2023-01-19T02:26:54.872Z,1.95
2023-01-19T02:29:27.317Z,1.96
2023-01-19T02:31:59.814Z,2.02
2023-01-19T02:34:29.719Z,2.05
2023-01-19T02:37:06.565Z,2.06
2023-01-19T02:39:45.202Z,2.09
2023-01-19T02:42:23.441Z,2.07
2023-01-19T02:44:55.721Z,2.02
2023-01-19T02:47:25.413Z,2.04
2023-01-19T02:49:58.367Z,2.05
2023-01-19T02:52:29.248Z,2.18
2023-01-19T02:55:14.748Z,2.20
2023-01-19T02:57:58.898Z,2.27
2023-01-19T03:00:40.309Z,2.19
2023-01-19T03:03:27.094Z,2.14
2023-01-19T03:06:04.803Z,2.13
2023-01-19T03:08:46.515Z,2.15
2023-01-19T03:11:17.593Z,2.06
2023-01-19T03:13:52.525Z,1.91
2023-01-19T03:16:27.129Z,1.94
2023-01-19T03:19:06.913Z,1.88
2023-01-19T03:21:39.912Z,1.87
2023-01-19T03:24:11.673Z,1.88
2023-01-19T03:26:45.539Z,1.85
2023-01-19T03:29:17.535Z,1.81
2023-01-19T03:31:50.307Z,1.80
2023-01-19T03:34:22.160Z,1.82
2023-01-19T03:36:56.118Z,2.00
2023-01-19T03:39:28.263Z,2.04
2023-01-19T03:42:04.214Z,1.99
2023-01-19T03:44:37.499Z,1.80
2023-01-19T03:47:08.961Z,1.95
2023-01-19T03:49:38.988Z,1.91
2023-01-19T03:52:08.099Z,1.88
2023-01-19T03:54:37.616Z,1.89
2023-01-19T03:57:08.231Z,1.83
2023-01-19T03:59:37.439Z,1.77
2023-01-19T04:02:06.604Z,1.70
2023-01-19T04:04:39.904Z,1.64
2023-01-19T04:07:11.577Z,2.03
2023-01-19T04:09:40.725Z,1.85
2023-01-19T04:12:11.236Z,1.83
2023-01-19T04:14:40.683Z,1.72
2023-01-19T04:17:10.435Z,1.76
2023-01-19T04:19:39.627Z,1.71
2023-01-19T04:22:08.835Z,1.64
2023-01-19T04:24:38.013Z,1.68
2023-01-19T04:27:07.226Z,1.71
2023-01-19T04:29:37.750Z,1.71
2023-01-19T04:32:07.421Z,1.73
2023-01-19T04:34:36.762Z,1.76
2023-01-19T04:37:05.927Z,1.76
2023-01-19T04:39:35.066Z,1.79
2023-01-19T04:42:04.169Z,1.82
2023-01-19T04:44:33.467Z,1.77
2023-01-19T04:47:03.998Z,1.70
2023-01-19T04:49:33.169Z,1.68
2023-01-19T04:52:02.462Z,1.68
2023-01-19T04:54:32.099Z,1.74
2023-01-19T04:57:01.217Z,1.67
2023-01-19T04:59:30.476Z,1.65
2023-01-19T05:01:59.671Z,1.67
2023-01-19T05:04:30.522Z,1.63
2023-01-19T05:06:59.671Z,1.62
2023-01-19T05:09:28.787Z,1.47
2023-01-19T05:11:57.934Z,1.41
2023-01-19T05:14:27.183Z,1.38
2023-01-19T05:16:56.260Z,1.52
2023-01-19T05:19:25.443Z,1.53
2023-01-19T05:21:56.075Z,1.59
2023-01-19T05:24:25.304Z,1.67
2023-01-19T05:26:54.446Z,1.68
2023-01-19T05:29:23.962Z,1.66
2023-01-19T05:31:53.197Z,1.66
2023-01-19T05:34:22.585Z,1.67
2023-01-19T05:36:51.707Z,1.62
2023-01-19T05:39:22.509Z,1.57
2023-01-19T05:41:51.785Z,1.58
2023-01-19T05:44:20.872Z,1.62
2023-01-19T05:46:49.987Z,1.62
2023-01-19T05:49:19.075Z,1.63
2023-01-19T05:51:48.115Z,1.59
2023-01-19T05:54:17.272Z,1.59
2023-01-19T05:56:47.710Z,1.52
2023-01-19T05:59:21.682Z,1.59
2023-01-19T06:01:51.000Z,1.64
2023-01-19T06:04:21.083Z,1.61
2023-01-19T06:06:50.561Z,1.63
2023-01-19T06:09:20.406Z,1.58
2023-01-19T06:11:51.036Z,1.54
2023-01-19T06:14:20.224Z,1.49
2023-01-19T06:16:49.361Z,1.52
2023-01-19T06:19:18.563Z,1.56
2023-01-19T06:21:52.374Z,1.54
2023-01-19T06:24:22.059Z,1.37
2023-01-19T06:26:52.894Z,1.41
2023-01-19T06:29:22.219Z,1.40
2023-01-19T06:31:51.494Z,1.39
2023-01-19T06:34:20.842Z,1.44
2023-01-19T06:36:51.032Z,1.37
2023-01-19T06:39:21.244Z,1.36
2023-01-19T06:41:50.537Z,1.40
2023-01-19T06:44:21.243Z,1.37
2023-01-19T06:46:50.490Z,1.15
2023-01-19T06:49:19.651Z,0.97
2023-01-19T06:51:51.180Z,1.02
2023-01-19T06:54:20.693Z,1.06
2023-01-19T06:56:49.849Z,1.10
2023-01-19T06:59:25.922Z,1.15
2023-01-19T07:01:56.687Z,1.15
2023-01-19T07:04:27.153Z,1.12
2023-01-19T07:06:56.492Z,1.14
2023-01-19T07:09:26.215Z,1.13
2023-01-19T07:11:56.214Z,1.16
2023-01-19T07:14:31.111Z,1.18
2023-01-19T07:17:04.473Z,1.34
2023-01-19T07:19:35.005Z,1.35
2023-01-19T07:22:04.326Z,1.23
2023-01-19T07:24:34.343Z,1.03
2023-01-19T07:27:03.447Z,1.02
2023-01-19T07:29:34.310Z,1.05
2023-01-19T07:32:03.524Z,1.17
2023-01-19T07:34:32.825Z,1.23
2023-01-19T07:37:02.213Z,1.23
2023-01-19T07:39:36.710Z,1.24
2023-01-19T07:42:08.757Z,1.35
2023-01-19T07:44:40.561Z,1.35
2023-01-19T07:47:12.700Z,1.35
2023-01-19T07:49:42.222Z,1.35
2023-01-19T07:52:12.071Z,1.42
2023-01-19T07:54:41.644Z,1.37
2023-01-19T07:57:10.787Z,1.34
2023-01-19T07:59:41.266Z,1.44
2023-01-19T08:02:12.026Z,1.54
2023-01-19T08:04:41.373Z,1.40
2023-01-19T08:07:10.995Z,1.40
2023-01-19T08:09:40.086Z,1.38
2023-01-19T08:12:09.228Z,1.40
2023-01-19T08:14:38.385Z,1.39
2023-01-19T08:17:08.981Z,1.38
2023-01-19T08:19:41.315Z,1.62
2023-01-19T08:22:11.144Z,1.44
2023-01-19T08:24:40.202Z,1.42
2023-01-19T08:27:11.319Z,1.49
2023-01-19T08:29:41.016Z,1.47
2023-01-19T08:32:11.868Z,1.40
2023-01-19T08:34:41.244Z,1.40
2023-01-19T08:37:10.809Z,1.47
2023-01-19T08:39:40.075Z,1.44
2023-01-19T08:42:09.580Z,1.49
2023-01-19T08:44:46.698Z,1.83
2023-01-19T08:47:24.094Z,1.66
2023-01-19T08:49:53.364Z,1.91
2023-01-19T08:52:24.768Z,1.84
2023-01-19T08:54:54.162Z,1.70
2023-01-19T08:57:28.820Z,1.63
2023-01-19T08:59:58.135Z,1.64
2023-01-19T09:02:29.396Z,1.80
2023-01-19T09:04:58.966Z,1.88
2023-01-19T09:07:30.576Z,1.85
2023-01-19T09:10:02.522Z,1.86
2023-01-19T09:12:32.297Z,1.88
2023-01-19T09:15:01.800Z,1.82
2023-01-19T09:17:32.729Z,1.89
2023-01-19T09:20:04.805Z,1.94
2023-01-19T09:22:34.492Z,2.03
2023-01-19T09:25:03.692Z,1.97
2023-01-19T09:27:32.896Z,1.91
2023-01-19T09:30:02.330Z,2.05
2023-01-19T09:32:32.853Z,2.13
2023-01-19T09:35:01.986Z,2.16
2023-01-19T09:37:31.355Z,2.19
2023-01-19T09:40:00.731Z,2.30
2023-01-19T09:42:40.751Z,2.18
2023-01-19T09:45:22.619Z,2.19
2023-01-19T09:47:55.944Z,2.20
2023-01-19T09:50:33.038Z,2.15
2023-01-19T09:53:14.119Z,2.15
2023-01-19T09:55:44.213Z,2.08
2023-01-19T09:58:16.590Z,2.05
2023-01-19T10:00:54.452Z,2.13
2023-01-19T10:03:27.679Z,2.04
2023-01-19T10:06:03.655Z,2.04
2023-01-19T10:08:40.284Z,2.06
2023-01-19T10:11:22.980Z,2.06
2023-01-19T10:13:54.219Z,2.10
2023-01-19T10:16:35.223Z,2.12
2023-01-19T10:19:28.718Z,2.12
2023-01-19T10:22:01.479Z,2.14
2023-01-19T10:24:39.026Z,2.24
2023-01-19T10:27:23.738Z,2.19
2023-01-19T10:29:53.361Z,2.20
2023-01-19T10:32:26.052Z,2.20
2023-01-19T10:34:58.193Z,2.24
2023-01-19T10:37:33.404Z,2.30
2023-01-19T10:40:20.977Z,2.34
2023-01-19T10:42:50.133Z,2.37
2023-01-19T10:45:23.855Z,2.33
2023-01-19T10:47:56.445Z,2.51
2023-01-19T10:50:30.800Z,2.53
2023-01-19T10:53:03.906Z,2.61
2023-01-19T10:55:38.157Z,2.69
2023-01-19T10:58:27.429Z,2.80
2023-01-19T11:00:56.756Z,2.92
2023-01-19T11:03:29.203Z,2.98
2023-01-19T11:06:32.971Z,3.00
2023-01-19T11:09:17.756Z,3.04
2023-01-19T11:11:51.112Z,3.07
2023-01-19T11:14:23.711Z,3.17
2023-01-19T11:16:56.243Z,3.26
2023-01-19T11:19:32.476Z,3.28
2023-01-19T11:22:27.529Z,3.34
2023-01-19T11:25:01.239Z,3.30
2023-01-19T11:27:33.136Z,3.35
2023-01-19T11:30:10.435Z,3.01
2023-01-19T11:32:39.660Z,3.04
2023-01-19T11:35:36.486Z,2.99
2023-01-19T11:38:19.236Z,2.96
2023-01-19T11:40:54.889Z,2.85
2023-01-19T11:43:36.580Z,2.85
2023-01-19T11:46:18.245Z,2.86
2023-01-19T11:48:57.471Z,2.90
2023-01-19T11:51:33.443Z,2.99
2023-01-19T11:54:16.393Z,3.11
2023-01-19T11:56:52.117Z,3.21
2023-01-19T11:59:23.234Z,3.26
2023-01-19T12:01:57.555Z,3.32
2023-01-19T12:04:31.656Z,3.29
2023-01-19T12:07:07.572Z,3.29
2023-01-19T12:09:44.005Z,3.15
2023-01-19T12:12:22.433Z,3.07
2023-01-19T12:15:00.479Z,2.91
2023-01-19T12:17:33.137Z,2.88
2023-01-19T12:20:14.570Z,2.75
2023-01-19T12:22:55.897Z,2.62
2023-01-19T12:25:35.491Z,2.50
2023-01-19T12:28:05.026Z,2.48
2023-01-19T12:30:34.936Z,2.49
2023-01-19T12:33:35.998Z,2.53
2023-01-19T12:36:11.527Z,2.64
2023-01-19T12:38:51.296Z,2.59
2023-01-19T12:41:27.388Z,2.61
2023-01-19T12:44:25.343Z,2.59
2023-01-19T12:47:03.484Z,2.56
2023-01-19T12:49:41.175Z,2.58
2023-01-19T12:52:30.841Z,2.60
2023-01-19T12:55:06.051Z,2.66
2023-01-19T12:57:42.024Z,2.57
2023-01-19T13:00:33.900Z,2.55
2023-01-19T13:03:06.703Z,2.62
2023-01-19T13:05:53.583Z,2.62
2023-01-19T13:08:25.950Z,2.72
2023-01-19T13:11:22.483Z,2.76
2023-01-19T13:14:34.912Z,2.72
2023-01-19T13:17:33.189Z,2.55
2023-01-19T13:20:32.604Z,2.46
2023-01-19T13:23:19.850Z,2.44
2023-01-19T13:26:16.598Z,2.49
2023-01-19T13:28:50.405Z,2.66
2023-01-19T13:31:21.052Z,2.84
2023-01-19T13:33:55.026Z,3.07
2023-01-19T13:36:29.986Z,3.30
2023-01-19T13:39:02.721Z,3.47
2023-01-19T13:41:37.505Z,3.54
2023-01-19T13:44:14.876Z,3.50
2023-01-19T13:46:44.132Z,3.46
2023-01-19T13:49:22.554Z,3.34
2023-01-19T13:52:17.170Z,3.27
2023-01-19T13:54:51.146Z,3.13
2023-01-19T13:57:28.959Z,3.05
2023-01-19T14:00:17.915Z,2.96
2023-01-19T14:03:00.188Z,2.95
2023-01-19T14:05:33.352Z,2.89
2023-01-19T14:08:13.880Z,2.85
2023-01-19T14:10:45.937Z,2.76
2023-01-19T14:13:18.460Z,2.73
2023-01-19T14:15:56.699Z,2.63
2023-01-19T14:18:31.240Z,2.58
2023-01-19T14:21:06.098Z,2.48
2023-01-19T14:23:51.035Z,2.42
2023-01-19T14:26:47.635Z,2.32
2023-01-19T14:29:32.792Z,2.30
2023-01-19T14:32:15.768Z,2.26
2023-01-19T14:34:47.384Z,2.20
2023-01-19T14:37:22.272Z,2.12
2023-01-19T14:39:55.789Z,2.08
2023-01-19T14:42:32.982Z,2.04
2023-01-19T14:45:09.410Z,1.99
2023-01-19T14:47:42.385Z,1.91
2023-01-19T14:50:23.694Z,1.89
2023-01-19T14:52:58.536Z,1.81
2023-01-19T14:55:35.794Z,1.83
2023-01-19T14:58:11.352Z,1.80
2023-01-19T15:00:40.802Z,1.76
2023-01-19T15:03:10.901Z,1.69
2023-01-19T15:05:41.210Z,1.69
2023-01-19T15:08:13.547Z,1.70
2023-01-19T15:10:43.019Z,1.63
2023-01-19T15:13:18.621Z,1.62
2023-01-19T15:15:49.856Z,1.57
2023-01-19T15:18:26.283Z,1.54
2023-01-19T15:21:02.687Z,1.52
2023-01-19T15:23:33.952Z,1.48
2023-01-19T15:26:05.970Z,1.47
2023-01-19T15:28:35.202Z,1.43
2023-01-19T15:31:05.313Z,1.39
2023-01-19T15:33:34.527Z,1.36
2023-01-19T15:36:05.459Z,1.35
2023-01-19T15:38:35.986Z,1.30
2023-01-19T15:41:05.285Z,1.29
2023-01-19T15:43:34.445Z,1.19
2023-01-19T15:46:04.042Z,1.17
2023-01-19T15:48:33.317Z,1.11
2023-01-19T15:51:02.474Z,1.06
2023-01-19T15:53:34.925Z,1.02
2023-01-19T15:56:06.264Z,1.00
2023-01-19T15:58:36.450Z,1.00
2023-01-19T16:01:07.386Z,0.97
2023-01-19T16:03:37.108Z,0.88
2023-01-19T16:06:07.276Z,0.78
2023-01-19T16:08:36.939Z,0.80
2023-01-19T16:11:10.523Z,0.82
2023-01-19T16:13:40.180Z,0.81
2023-01-19T16:16:19.465Z,0.76
2023-01-19T16:18:48.988Z,0.70
2023-01-19T16:21:18.773Z,0.77
2023-01-19T16:23:48.333Z,0.70
2023-01-19T16:26:32.673Z,0.59
2023-01-19T16:29:08.065Z,0.49
2023-01-19T16:31:38.217Z,0.56
2023-01-19T16:34:08.151Z,0.54
2023-01-19T16:36:43.193Z,0.45
2023-01-19T16:39:15.204Z,0.30
2023-01-19T16:41:47.631Z,0.27
2023-01-19T16:44:17.856Z,0.40
2023-01-19T16:46:49.810Z,0.27
2023-01-19T16:49:28.080Z,0.19
2023-01-19T16:51:58.689Z,0.34
2023-01-19T16:54:30.003Z,0.47
2023-01-19T16:57:00.842Z,0.31
2023-01-19T16:59:30.360Z,0.26
2023-01-19T17:02:02.144Z,0.21
2023-01-19T17:04:31.783Z,0.12
2023-01-19T17:07:01.549Z,0.02
2023-01-19T17:09:30.757Z,-0.06
2023-01-19T17:12:01.393Z,0.13
2023-01-19T17:14:30.709Z,0.17
2023-01-19T17:17:02.994Z,0.28
2023-01-19T17:19:32.285Z,0.21
2023-01-19T17:22:01.444Z,0.46
2023-01-19T17:24:30.686Z,0.55
2023-01-19T17:27:01.611Z,0.48
2023-01-19T17:29:30.817Z,0.43
2023-01-19T17:32:00.049Z,0.26
2023-01-19T17:34:29.279Z,0.40
2023-01-19T17:37:03.031Z,0.30
2023-01-19T17:39:32.497Z,0.24
2023-01-19T17:42:05.125Z,0.08
2023-01-19T17:44:34.500Z,0.04
2023-01-19T17:47:03.667Z,-0.01
2023-01-19T17:49:32.864Z,0.06
2023-01-19T17:52:02.192Z,0.00
2023-01-19T17:54:31.697Z,0.03
2023-01-19T17:57:00.977Z,0.05
2023-01-19T17:59:32.740Z,0.12
2023-01-19T18:02:02.234Z,0.15
2023-01-19T18:04:32.312Z,0.16
2023-01-19T18:07:02.268Z,0.15
2023-01-19T18:09:31.812Z,0.19
2023-01-19T18:12:01.063Z,0.20
2023-01-19T18:14:33.086Z,0.24
2023-01-19T18:17:02.409Z,0.20
2023-01-19T18:19:32.687Z,0.17
2023-01-19T18:22:02.697Z,0.26
2023-01-19T18:24:32.056Z,0.21
2023-01-19T18:27:01.205Z,0.13
2023-01-19T18:29:32.965Z,0.13
2023-01-19T18:32:03.577Z,0.14
2023-01-19T18:34:33.584Z,0.19
2023-01-19T18:37:02.944Z,0.44
2023-01-19T18:39:32.144Z,0.46
2023-01-19T18:42:01.391Z,0.37
2023-01-19T18:44:30.581Z,0.33
2023-01-19T18:46:59.760Z,0.30
2023-01-19T18:49:30.584Z,0.41
2023-01-19T18:52:00.209Z,0.43
2023-01-19T18:54:29.399Z,0.27
2023-01-19T18:56:58.620Z,0.39
2023-01-19T18:59:27.798Z,0.23
2023-01-19T19:01:59.179Z,0.22
2023-01-19T19:04:30.164Z,0.20
2023-01-19T19:06:59.427Z,0.21
2023-01-19T19:09:29.009Z,0.23
2023-01-19T19:11:58.937Z,0.38
2023-01-19T19:14:28.241Z,0.29
2023-01-19T19:16:57.426Z,0.34
2023-01-19T19:19:26.789Z,0.43
2023-01-19T19:21:57.289Z,0.36
2023-01-19T19:24:26.722Z,0.38
2023-01-19T19:26:55.859Z,0.27
2023-01-19T19:29:24.953Z,0.19
2023-01-19T19:31:54.153Z,0.20
2023-01-19T19:34:25.193Z,0.12
2023-01-19T19:36:54.383Z,0.36
2023-01-19T19:39:25.359Z,0.20
2023-01-19T19:41:54.500Z,0.25
2023-01-19T19:44:23.700Z,0.18
2023-01-19T19:46:52.896Z,0.20
2023-01-19T19:49:22.075Z,-0.04
2023-01-19T19:51:51.567Z,0.02
2023-01-19T19:54:20.851Z,0.05
2023-01-19T19:56:52.350Z,0.06
2023-01-19T19:59:21.586Z,-0.04
2023-01-19T20:01:52.349Z,-0.12
2023-01-19T20:04:22.980Z,-0.19
2023-01-19T20:06:52.249Z,-0.18
2023-01-19T20:09:21.651Z,-0.12
2023-01-19T20:11:53.031Z,-0.09
2023-01-19T20:14:22.622Z,-0.09
2023-01-19T20:16:52.683Z,-0.12
2023-01-19T20:19:21.876Z,-0.09
2023-01-19T20:21:56.247Z,-0.11
2023-01-19T20:24:25.447Z,-0.15
2023-01-19T20:26:57.269Z,-0.13
2023-01-19T20:29:26.675Z,-0.12
2023-01-19T20:31:57.689Z,-0.12
2023-01-19T20:34:33.052Z,-0.11
2023-01-19T20:37:04.134Z,-0.17
2023-01-19T20:39:35.382Z,-0.22
2023-01-19T20:42:11.727Z,-0.24
2023-01-19T20:44:41.548Z,-0.19
2023-01-19T20:47:11.389Z,-0.19
2023-01-19T20:49:40.823Z,-0.21
2023-01-19T20:52:09.981Z,-0.19
2023-01-19T20:54:40.097Z,-0.13
2023-01-19T20:57:10.855Z,-0.18
2023-01-19T20:59:40.962Z,-0.26
2023-01-19T21:02:15.028Z,-0.21
2023-01-19T21:04:44.875Z,-0.24
2023-01-19T21:07:14.271Z,-0.26
2023-01-19T21:09:43.625Z,-0.35
2023-01-19T21:12:16.224Z,-0.38
2023-01-19T21:14:46.009Z,-0.42
2023-01-19T21:17:15.243Z,-0.48
2023-01-19T21:19:44.979Z,-0.55
2023-01-19T21:22:14.497Z,-0.67
2023-01-19T21:24:44.589Z,-0.71
2023-01-19T21:27:15.458Z,-0.65
2023-01-19T21:29:45.009Z,-0.54
2023-01-19T21:32:17.047Z,-0.69
2023-01-19T21:34:48.230Z,-0.88
2023-01-19T21:37:17.510Z,-1.00
2023-01-19T21:39:47.304Z,-1.07
2023-01-19T21:42:22.958Z,-1.14
2023-01-19T21:44:52.497Z,-1.18
2023-01-19T21:47:21.995Z,-1.26
2023-01-19T21:49:51.328Z,-1.28
2023-01-19T21:52:22.557Z,-1.31
2023-01-19T21:54:51.712Z,-1.26
2023-01-19T21:57:22.498Z,-1.30
2023-01-19T21:59:52.481Z,-1.31
2023-01-19T22:02:37.192Z,-1.34
2023-01-19T22:05:09.310Z,-1.26
2023-01-19T22:07:40.141Z,-1.19
2023-01-19T22:10:12.398Z,-1.27
2023-01-19T22:12:43.355Z,-1.24
2023-01-19T22:15:14.068Z,-1.22
2023-01-19T22:17:44.379Z,-1.20
2023-01-19T22:20:14.189Z,-1.21
2023-01-19T22:22:43.550Z,-1.20
2023-01-19T22:25:13.080Z,-1.12
2023-01-19T22:27:43.901Z,-1.28
2023-01-19T22:30:13.399Z,-1.38
2023-01-19T22:32:42.561Z,-1.47
2023-01-19T22:35:12.247Z,-1.51
2023-01-19T22:37:47.472Z,-1.55
2023-01-19T22:40:17.248Z,-1.60
2023-01-19T22:42:48.666Z,-1.69
2023-01-19T22:45:18.121Z,-1.67
2023-01-19T22:47:48.005Z,-1.67
2023-01-19T22:50:17.862Z,-1.72
2023-01-19T22:52:47.329Z,-1.74
2023-01-19T22:55:18.074Z,-1.76
2023-01-19T22:57:48.720Z,-1.69
2023-01-19T23:00:19.952Z,-1.77
2023-01-19T23:02:49.370Z,-1.71
2023-01-19T23:05:18.593Z,-1.63
2023-01-19T23:07:47.855Z,-1.62
2023-01-19T23:10:17.878Z,-1.73
2023-01-19T23:12:49.824Z,-1.86
2023-01-19T23:15:19.072Z,-1.95
2023-01-19T23:17:52.905Z,-2.11
2023-01-19T23:20:22.281Z,-2.06
2023-01-19T23:22:51.612Z,-2.13
2023-01-19T23:25:23.543Z,-2.16
2023-01-19T23:27:54.114Z,-2.20
2023-01-19T23:30:23.403Z,-2.35
2023-01-19T23:32:52.679Z,-2.37
2023-01-19T23:35:21.842Z,-2.44
2023-01-19T23:37:51.090Z,-2.48
2023-01-19T23:40:20.559Z,-2.56
2023-01-19T23:42:49.721Z,-2.56
2023-01-19T23:45:20.320Z,-2.52
2023-01-19T23:47:49.551Z,-2.45
2023-01-19T23:50:19.497Z,-2.45
2023-01-19T23:52:48.801Z,-2.45
2023-01-19T23:55:18.319Z,-2.32
2023-01-19T23:57:47.571Z,-2.12
